Kezdőlap
METAR-TAF:

METAR-TAF

Repülőterek :

Jakutszk, Oroszország

földrajzi szélesség: 62-01N, földrajzi hosszúság: 129-43E, magasság: 103 m

Jelenlegi meteorológiai megfigyelések

A jelentés 44 perccel ezelõtt készült, 21:30 UTC
Délkeleti szél 4 kt
Hőmérséklet 19°C
Páratartalom 83%
Légköri nyomás 1004 hPa
Látótávolság 10 km, vagy több
felhőtlen 1500 m magasságban, és nincs gomolyfelhõ

METAR: UEEE 212130Z 14002MPS CAVOK 19/16 Q1004 R23/09//64 NOSIG RMK QFE744

Idő: 07:14 (22:14 UTC)

Előrejelzés

A jelentés 2 órával és 14 perccel ezelõtt készült, 20:00 UTC
Az előrejelzés 21-én 21 óra UTC és 23-én 03 óra UTC között érvényes
Délkeleti szél 6 kt széllökések: 16 kt
Látótávolság 10 km, vagy több
Szórványos felhőzet 3000 lábon

TAF: UEEE 212000Z 2121/2303 14003G08MPS 9999 SCT030 TX29/2207Z TN17/2218Z

Meteorológiai megfigyelések és előrejelzések több, mint 4000 repülőtéren (METAR és TAF jelentéseket).

A térképen piros és sárga pontok jelzik az elérhető meteorológiai állomásokat.

Mozgassa az egeret a pont fölött, hogy megjelenjen az állomás neve.

Azután kattintson az időjárási megfigyelések és előrejelzések megtekintéséhez.

A térkép megváltoztatása: kattintson a fekete keresztel jelölt zöld gombra ráközelítéshez, a vonallal jelölt zöld gombra távolításhoz, vagy a zöld nyilakra a szomszédos térképek eléréséhez.


METAR-TAF: